上海/浦東 の空港の天気 - METARとTAF

上海浦東国際空港 ( ZSPD / PVG ) - 中国 上海市
飛行場実況気象(Metar)
観測時間01/21 21:30 CST (01/21 13:30 UTC)
風向・風速西 2m/s
視程10km以上
天気現象
なし
気温4℃
湿度65%
気圧1026hPa
METARZSPD 211330Z 26002MPS CAVOK 04/M02 Q1026 NOSIG
過去の天気等 Google飛行場航空写真 Wunderground天気予報

過去48時間のMETAR

飛行場予報(TAF)
発表時間: 1/21 17:19 CST (1/21 09:19 UTC)
予報対象時間: 21日20時 CST ~ 22日20時 CST
風向・風速西北西 4m/s
視程5000m
天気現象もや
全天の4割程度の雲 雲底高度 910m
TAF ZSPD 210919Z 2112/2212 29004MPS 5000 BR SCT030 TX11/2206Z TN00/2121Z